Flight Track Log - Related Links

Times and Time Zones

All times are in EDT time to prevent confusion due to time zone crossing. See the RAX81 flight status page for this flight to view local times or setup timezone preferences in your user account.

Time Position Orientation Groundspeed Altitude Reporting Facility
EDT Latitude Longitude Course Direction KTS MPH feet Rate Location/Type
Thu 08:23:46 PM 42.2406 -83.5450 234° Southwest 130 150 1,100  Level Cleveland Center
Thu 08:24:41 PM 42.2231 -83.5778 234° Southwest 135 155 2,300 1,241 Climbing Cleveland Center
Thu 08:25:42 PM 42.1908 -83.6128 219° Southwest 136 157 3,500 836 Climbing Cleveland Center
Thu 08:26:43 PM 42.1856 -83.6631 262° West 159 183 4,000 259 Climbing Cleveland Center
Thu 08:27:38 PM 42.1922 -83.7222 279° West 183 211 4,000  Level Cleveland Center
Thu 08:28:45 PM 42.2025 -83.7983 280° West 185 213 4,000  Level Cleveland Center
Thu 08:30:00 PM 42.2137 -83.8808 280° West  Level FlightAware Approximate
Thu 08:34:53 PM 42.2658 -84.1981 266° West 180 207 4,000  Level Chicago Center
Thu 08:35:55 PM 42.2631 -84.2661 267° West 182 209 4,000  Level Chicago Center
Thu 08:36:57 PM 42.2564 -84.3342 262° West 183 211 4,000  Level Chicago Center
Thu 08:37:00 PM 42.2416 -84.3486 266° West  Level FlightAware Approximate
Thu 08:37:59 PM 42.2525 -84.4008 266° West 181 208 4,000  Level Chicago Center
Thu 08:38:00 PM 42.2382 -84.4156 266° West  Level FlightAware Approximate
Thu 08:39:00 PM 42.2347 -84.4825 266° West  Level FlightAware Approximate
Thu 08:39:01 PM 42.2467 -84.4817 264° West 181 208 4,000  Level Chicago Center
Thu 08:40:00 PM 42.2312 -84.5494 266° West  Level FlightAware Approximate
Thu 08:40:03 PM 42.2433 -84.5506 266° West 182 209 4,000  Level Chicago Center
Thu 08:41:05 PM 42.2394 -84.6194 266° West 183 211 4,000  Level Chicago Center
Thu 08:42:07 PM 42.2344 -84.6864 264° West 183 211 4,000  Level Chicago Center
Thu 08:43:09 PM 42.2292 -84.7511 264° West 178 205 4,000  Level Chicago Center
Thu 08:44:11 PM 42.2236 -84.8317 265° West 181 208 4,000  Level Chicago Center
Thu 08:45:13 PM 42.2186 -84.8997 264° West 182 209 4,000  Level Chicago Center
Thu 08:46:15 PM 42.2133 -84.9683 264° West 184 212 4,000  Level Chicago Center
Thu 08:47:17 PM 42.2092 -85.0364 265° West 184 212 4,000  Level Chicago Center
Thu 08:48:20 PM 42.2056 -85.1042 266° West 183 211 4,000  Level Chicago Center
Thu 08:49:22 PM 42.2022 -85.1719 266° West 183 211 4,000  Level Chicago Center
Thu 08:50:24 PM 42.1975 -85.2544 266° West 184 212 4,000  Level Chicago Center
Thu 08:51:26 PM 42.1933 -85.3239 265° West 186 214 4,000  Level Chicago Center
Thu 08:52:28 PM 42.1892 -85.3925 265° West 186 214 4,000  Level Chicago Center
Thu 08:53:30 PM 42.1850 -85.4614 265° West 186 214 4,000  Level Chicago Center
Thu 08:54:32 PM 42.1808 -85.5303 265° West 186 214 4,000  Level Chicago Center
Thu 08:55:34 PM 42.1758 -85.6125 265° West 185 213 4,000  Level Chicago Center
Thu 08:56:36 PM 42.1722 -85.6806 266° West 183 211 4,000  Level Chicago Center
Thu 08:57:38 PM 42.1675 -85.7489 265° West 184 212 4,000  Level Chicago Center
Thu 08:58:40 PM 42.1617 -85.8178 264° West 185 213 4,000  Level Chicago Center
Thu 08:59:42 PM 42.1575 -85.8858 265° West 184 212 4,000  Level Chicago Center
Thu 09:00:46 PM 42.1533 -85.9653 266° West 180 207 4,000  Level Chicago Center
Thu 09:01:48 PM 42.1481 -86.0339 264° West 183 211 4,000  Level Chicago Center
Thu 09:02:50 PM 42.1439 -86.1017 265° West 183 211 4,000 290 Level Chicago Center
Thu 09:03:52 PM 42.1411 -86.1669 267° West 179 206 4,600 581 Climbing Chicago Center
Thu 09:04:54 PM 42.1436 -86.2292 273° West 170 196 5,200 677 Climbing Chicago Center
Thu 09:05:56 PM 42.1444 -86.3031 271° West 166 191 6,000 677 Climbing Chicago Center
Thu 09:06:58 PM 42.1442 -86.3661 270° West 168 193 6,600 581 Climbing Chicago Center
Thu 09:08:00 PM 42.1447 -86.4278 271° West 167 192 7,200 532 Climbing Chicago Center
Thu 09:09:02 PM 42.1450 -86.4931 270° West 172 198 7,700 387 Climbing Chicago Center
Thu 09:10:04 PM 42.1467 -86.5547 272° West 169 194 8,000 144 Climbing Chicago Center
Thu 09:11:07 PM 42.1478 -86.6253 271° West 182 209 8,000  Level Chicago Center
Thu 09:12:09 PM 42.1497 -86.7106 272° West 193 222 8,000  Level Chicago Center
Thu 09:13:11 PM 42.1511 -86.7850 271° West 200 230 8,000  Level Chicago Center
Thu 09:14:13 PM 42.1500 -86.8572 269° West 197 227 8,000  Level Chicago Center
Thu 09:15:15 PM 42.1508 -86.9308 271° West 198 228 8,000  Level Chicago Center
Thu 09:16:17 PM 42.1572 -87.0181 276° West 197 227 8,000  Level Chicago Center
Thu 09:17:19 PM 42.1614 -87.0872 275° West 189 217 8,000 -242 Level Chicago Center
Thu 09:18:21 PM 42.1681 -87.1642 277° West 204 235 7,500 -484 Descending Chicago Center
Thu 09:19:23 PM 42.1733 -87.2419 275° West 210 242 7,000 -242 Descending Chicago Center
Thu 09:20:25 PM 42.1786 -87.3139 276° West 200 230 7,000  Level Chicago Center
Thu 09:21:27 PM 42.1836 -87.3967 275° West 190 219 7,000  Level Chicago Center
Thu 09:22:29 PM 42.1886 -87.4661 276° West 188 216 7,000  Level Chicago Center
Thu 09:23:32 PM 42.1922 -87.5361 274° West 189 217 7,000  Level Chicago Center
Thu 09:24:34 PM 42.1950 -87.6061 273° West 189 217 7,000  Level Chicago Center
Thu 09:25:36 PM 42.1628 -87.6656 234° Southwest 196 226 7,000  Level Chicago Center
Thu 09:26:38 PM 42.1233 -87.7344 232° Southwest 196 226 7,000  Level Chicago Center
Thu 09:27:40 PM 42.0897 -87.7939 233° Southwest 199 229 7,000  Level Chicago Center
Thu 09:28:42 PM 42.0694 -87.8556 246° West 187 215 7,000  Level Chicago Center
Thu 09:29:18 PM 42.0667 -87.9000 265° West 186 214 7,000  Level Chicago TRACON
Thu 09:30:18 PM 42.0500 -87.9667 251° West 188 216 7,000 -200 Level Chicago TRACON
Thu 09:31:18 PM 42.0500 -88.0333 270° West 181 208 6,600 -600 Descending Chicago TRACON
Thu 09:32:18 PM 42.0667 -88.1000 289° West 188 216 5,800 -783 Descending Chicago TRACON
Thu 09:32:50 PM 42.0700 -88.1386 277° West 189 217 5,400 -702 Descending Chicago Center
Thu 09:33:52 PM 42.0658 -88.2017 265° West 193 222 4,700 -1,113 Descending Chicago Center
Thu 09:34:54 PM 42.0250 -88.1747 154° Southeast 213 245 3,100 -968 Descending Chicago Center
Thu 09:35:56 PM 42.0033 -88.0969 111° Southeast 197 227 2,700 -339 Descending Chicago Center
Thu 09:36:58 PM 41.9881 -88.0372 109° East 184 212 2,400 -339 Descending Chicago Center
Thu 09:38:00 PM 41.9822 -87.9825 98° East 167 192 2,000 -532 Descending Chicago Center
Thu 09:39:02 PM 41.9836 -87.9297 88° East 151 174 1,300 -581 Descending Chicago Center
Thu 09:40:04 PM 41.9847 -87.8853 88° East 148 170 800 -484 Descending Chicago Center

Login

Don't have an account? Register now (free) for customized features, flight alerts, and more!